Time;durP1;ratioP1;P1;durP2;ratioP2;P2;SDS_P1;SDS_P2;PMS_P1;PMS_P2;Temp;Humidity;BMP_temperature;BMP_pressure;BME280_temperature;BME280_humidity;BME280_pressure;Samples;Min_cycle;Max_cycle;Signal;HPM_P1;HPM_P2
2021/10/22 00:02:00;;;;;;;90.53;52.30;;;;;;;;;;4927070;29;20422;-85
2021/10/22 00:04:27;;;;;;;90.28;51.33;;;;;;;;;;4922589;29;20409;-84
2021/10/22 00:06:57;;;;;;;85.97;49.95;;;;;;;;;;4924444;29;20881;-84
2021/10/22 00:09:24;;;;;;;87.05;51.42;;;;;;;;;;4924886;29;20420;-84
2021/10/22 00:11:50;;;;;;;84.70;50.80;;;;;;;;;;4923774;29;20437;-83
2021/10/22 00:14:17;;;;;;;86.40;51.38;;;;;;;;;;4923850;29;21296;-84
2021/10/22 00:16:44;;;;;;;83.38;49.05;;;;;;;;;;4925532;29;20480;-85
2021/10/22 00:19:12;;;;;;;84.72;49.88;;;;;;;;;;4925142;29;20798;-84
2021/10/22 00:21:38;;;;;;;99.15;50.20;;;;;;;;;;4927470;29;20414;-85
2021/10/22 00:24:07;;;;;;;84.15;50.25;;;;;;;;;;4926572;29;20894;-83
2021/10/22 00:26:34;;;;;;;88.32;50.33;;;;;;;;;;4925255;29;20410;-85
2021/10/22 00:29:01;;;;;;;97.28;50.72;;;;;;;;;;4928767;29;20437;-85
2021/10/22 00:31:28;;;;;;;82.00;50.40;;;;;;;;;;4927088;29;20433;-85
2021/10/22 00:33:54;;;;;;;87.35;50.30;;;;;;;;;;4928096;29;20413;-85
2021/10/22 00:36:21;;;;;;;81.35;49.45;;;;;;;;;;4926886;29;20406;-84
2021/10/22 00:38:48;;;;;;;78.45;48.70;;;;;;;;;;4924244;29;20778;-85
2021/10/22 00:41:17;;;;;;;78.82;48.22;;;;;;;;;;4926484;29;20409;-85
2021/10/22 00:43:44;;;;;;;75.38;46.78;;;;;;;;;;4923210;29;20418;-85
2021/10/22 00:46:10;;;;;;;71.63;47.03;;;;;;;;;;4928296;29;20422;-85
2021/10/22 00:48:38;;;;;;;69.85;44.78;;;;;;;;;;4926609;29;20409;-85
2021/10/22 00:51:06;;;;;;;65.28;43.13;;;;;;;;;;4924180;29;20437;-85
2021/10/22 00:53:36;;;;;;;67.57;44.15;;;;;;;;;;4927788;29;20426;-85
2021/10/22 00:56:03;;;;;;;63.53;43.47;;;;;;;;;;4921548;29;20509;-85
2021/10/22 00:58:31;;;;;;;65.37;42.93;;;;;;;;;;4927349;29;20475;-85
2021/10/22 01:00:58;;;;;;;64.00;44.00;;;;;;;;;;4928014;29;20421;-85
2021/10/22 01:03:25;;;;;;;59.88;41.33;;;;;;;;;;4925953;29;20424;-86
2021/10/22 01:05:53;;;;;;;61.95;41.30;;;;;;;;;;4924609;29;20752;-85
2021/10/22 01:08:20;;;;;;;60.00;40.83;;;;;;;;;;4928223;29;20410;-85
2021/10/22 01:10:47;;;;;;;58.63;39.87;;;;;;;;;;4929248;29;20433;-85
2021/10/22 01:13:14;;;;;;;60.58;40.80;;;;;;;;;;4926601;29;20880;-85
2021/10/22 01:15:42;;;;;;;63.88;42.67;;;;;;;;;;4926227;29;20455;-85
2021/10/22 01:18:08;;;;;;;62.63;41.67;;;;;;;;;;4926911;29;20886;-85
2021/10/22 01:20:39;;;;;;;60.92;40.83;;;;;;;;;;4927780;29;20422;-83
2021/10/22 01:23:07;;;;;;;60.00;40.15;;;;;;;;;;4921550;29;20427;-85
2021/10/22 01:25:33;;;;;;;58.10;38.38;;;;;;;;;;4927182;29;20421;-84
2021/10/22 01:28:01;;;;;;;53.97;38.30;;;;;;;;;;4927517;29;20428;-85
2021/10/22 01:30:30;;;;;;;55.15;37.97;;;;;;;;;;4927297;29;20450;-85
2021/10/22 01:33:00;;;;;;;55.28;38.78;;;;;;;;;;4929145;29;20504;-85
2021/10/22 01:35:28;;;;;;;53.38;37.17;;;;;;;;;;4924191;29;20410;-85
2021/10/22 01:37:56;;;;;;;57.33;37.97;;;;;;;;;;4923510;29;20867;-85
2021/10/22 01:40:24;;;;;;;57.53;38.38;;;;;;;;;;4926671;29;20409;-84
2021/10/22 01:42:51;;;;;;;61.88;39.60;;;;;;;;;;4923089;29;20845;-85
2021/10/22 01:45:23;;;;;;;59.57;38.83;;;;;;;;;;4923952;29;20417;-85
2021/10/22 01:47:50;;;;;;;61.42;38.50;;;;;;;;;;4930335;29;21227;-85
2021/10/22 01:50:17;;;;;;;63.78;40.13;;;;;;;;;;4930213;29;20412;-84
2021/10/22 01:52:46;;;;;;;60.08;38.50;;;;;;;;;;4930843;29;20444;-85
2021/10/22 01:55:14;;;;;;;60.00;38.53;;;;;;;;;;4934446;29;21145;-84
2021/10/22 01:57:41;;;;;;;63.42;39.20;;;;;;;;;;4937137;29;20423;-85
2021/10/22 02:00:10;;;;;;;59.95;37.03;;;;;;;;;;4934913;29;20850;-85
2021/10/22 02:02:37;;;;;;;60.75;38.72;;;;;;;;;;4937182;29;20418;-84
2021/10/22 02:05:05;;;;;;;59.83;37.33;;;;;;;;;;4934788;29;20837;-85
2021/10/22 02:07:32;;;;;;;66.43;38.13;;;;;;;;;;4928206;29;20423;-84
2021/10/22 02:09:59;;;;;;;84.40;40.10;;;;;;;;;;4948676;28;20414;-85
2021/10/22 02:12:27;;;;;;;124.87;40.13;;;;;;;;;;4955536;28;20417;-85
2021/10/22 02:14:54;;;;;;;125.45;41.42;;;;;;;;;;4933811;29;20421;-84
2021/10/22 02:17:21;;;;;;;100.18;38.92;;;;;;;;;;4931377;29;20409;-85
2021/10/22 02:19:48;;;;;;;86.47;39.92;;;;;;;;;;4932788;29;20417;-85
2021/10/22 02:22:15;;;;;;;127.97;40.27;;;;;;;;;;4933444;29;20977;-85
2021/10/22 02:24:42;;;;;;;123.00;40.88;;;;;;;;;;4930887;29;20432;-85
2021/10/22 02:27:09;;;;;;;122.72;40.17;;;;;;;;;;4943919;29;20904;-84
2021/10/22 02:29:37;;;;;;;83.18;39.05;;;;;;;;;;4933364;29;20434;-85
2021/10/22 02:32:05;;;;;;;112.83;38.17;;;;;;;;;;4937245;29;20894;-84
2021/10/22 02:34:32;;;;;;;102.67;39.57;;;;;;;;;;4933833;29;20652;-84
2021/10/22 02:36:59;;;;;;;70.43;38.88;;;;;;;;;;4933089;29;20414;-84
2021/10/22 02:39:26;;;;;;;77.57;37.25;;;;;;;;;;4932880;29;20447;-86
2021/10/22 02:41:53;;;;;;;88.68;38.60;;;;;;;;;;4932630;29;20790;-85
2021/10/22 02:44:20;;;;;;;71.63;36.13;;;;;;;;;;4936191;29;20418;-85
2021/10/22 02:46:48;;;;;;;72.53;37.47;;;;;;;;;;4932058;29;20416;-85
2021/10/22 02:49:15;;;;;;;66.28;37.83;;;;;;;;;;4939637;29;20416;-85
2021/10/22 02:51:42;;;;;;;58.30;36.00;;;;;;;;;;4937891;29;20437;-85
2021/10/22 02:54:09;;;;;;;59.17;37.03;;;;;;;;;;4928854;29;20419;-85
2021/10/22 02:56:35;;;;;;;69.47;37.00;;;;;;;;;;4917084;29;20948;-85
2021/10/22 02:59:02;;;;;;;70.25;36.17;;;;;;;;;;4919052;29;20418;-86
2021/10/22 03:01:29;;;;;;;74.38;38.05;;;;;;;;;;4932914;29;20957;-85
2021/10/22 03:03:57;;;;;;;66.93;36.60;;;;;;;;;;4930072;29;20413;-86
2021/10/22 03:06:25;;;;;;;61.72;37.60;;;;;;;;;;4933273;29;20424;-85
2021/10/22 03:08:52;;;;;;;65.93;37.97;;;;;;;;;;4925629;29;20413;-84
2021/10/22 03:11:19;;;;;;;63.45;38.58;;;;;;;;;;4930046;29;20425;-85
2021/10/22 03:13:45;;;;;;;59.53;36.70;;;;;;;;;;4932586;29;20468;-85
2021/10/22 03:16:13;;;;;;;61.30;37.55;;;;;;;;;;4922766;29;20427;-85
2021/10/22 03:18:40;;;;;;;58.50;35.80;;;;;;;;;;4926281;29;20903;-85
2021/10/22 03:21:08;;;;;;;54.45;35.67;;;;;;;;;;4929690;29;20405;-85
2021/10/22 03:23:35;;;;;;;52.35;34.70;;;;;;;;;;4928515;29;20410;-85
2021/10/22 03:26:02;;;;;;;52.67;34.38;;;;;;;;;;4929412;29;20438;-85
2021/10/22 03:28:29;;;;;;;59.78;34.88;;;;;;;;;;4929528;29;20441;-85
2021/10/22 03:30:56;;;;;;;54.38;35.17;;;;;;;;;;4924247;29;20419;-85
2021/10/22 03:33:23;;;;;;;62.38;36.88;;;;;;;;;;4929149;29;20902;-85
2021/10/22 03:35:50;;;;;;;59.05;35.63;;;;;;;;;;4932626;29;20437;-85
2021/10/22 03:38:18;;;;;;;55.47;35.70;;;;;;;;;;4929388;29;20428;-85
2021/10/22 03:40:45;;;;;;;62.95;34.67;;;;;;;;;;4930166;29;20822;-86
2021/10/22 03:43:12;;;;;;;61.72;34.28;;;;;;;;;;4931060;29;20421;-85
2021/10/22 03:45:38;;;;;;;59.92;34.45;;;;;;;;;;4929320;29;20502;-84
2021/10/22 03:48:05;;;;;;;74.50;33.72;;;;;;;;;;4929743;29;20425;-85
2021/10/22 03:50:33;;;;;;;72.03;33.50;;;;;;;;;;4929720;29;20422;-86
2021/10/22 03:53:00;;;;;;;73.40;33.88;;;;;;;;;;4929574;29;20898;-85
2021/10/22 03:55:29;;;;;;;69.32;32.58;;;;;;;;;;4925575;29;20903;-85
2021/10/22 03:57:55;;;;;;;63.97;32.45;;;;;;;;;;4920323;29;20414;-85
2021/10/22 04:00:22;;;;;;;48.50;31.55;;;;;;;;;;4930372;29;20422;-85
2021/10/22 04:02:49;;;;;;;46.75;30.67;;;;;;;;;;4948184;29;20408;-85
2021/10/22 04:05:16;;;;;;;44.30;29.80;;;;;;;;;;4918835;29;20505;-85
2021/10/22 04:07:43;;;;;;;43.00;29.77;;;;;;;;;;4925159;29;20419;-85
2021/10/22 04:10:10;;;;;;;45.17;30.25;;;;;;;;;;4926392;29;20410;-85
2021/10/22 04:12:38;;;;;;;43.72;29.50;;;;;;;;;;4923653;29;20439;-86
2021/10/22 04:15:06;;;;;;;41.08;28.67;;;;;;;;;;4928316;29;20414;-86
2021/10/22 04:17:33;;;;;;;43.45;29.20;;;;;;;;;;4923967;29;20419;-85
2021/10/22 04:20:00;;;;;;;42.53;27.80;;;;;;;;;;4925533;29;20416;-86
2021/10/22 04:22:27;;;;;;;44.15;29.15;;;;;;;;;;4927214;29;20422;-84
2021/10/22 04:24:54;;;;;;;45.00;28.83;;;;;;;;;;4923584;29;20898;-85
2021/10/22 04:27:21;;;;;;;46.60;28.77;;;;;;;;;;4927138;29;20799;-85
2021/10/22 04:29:49;;;;;;;45.53;30.05;;;;;;;;;;4925436;29;20453;-85
2021/10/22 04:32:17;;;;;;;47.13;30.63;;;;;;;;;;4925876;29;21169;-85
2021/10/22 04:34:43;;;;;;;43.05;29.83;;;;;;;;;;4932105;29;20410;-85
2021/10/22 04:37:24;;;;;;;42.45;28.27;;;;;;;;;;4927839;29;20417;-85
2021/10/22 04:42:39;;;;;;;41.67;29.10;;;;;;;;;;4930371;29;20430;-85
2021/10/22 04:45:10;;;;;;;41.88;28.60;;;;;;;;;;4924005;29;20424;-86
2021/10/22 04:47:37;;;;;;;41.40;28.55;;;;;;;;;;4925593;29;20418;-85
2021/10/22 04:50:06;;;;;;;41.28;28.33;;;;;;;;;;4925465;29;20413;-85
2021/10/22 04:52:32;;;;;;;39.17;27.90;;;;;;;;;;4926912;29;20525;-85
2021/10/22 04:54:59;;;;;;;41.75;28.58;;;;;;;;;;4928619;29;20465;-85
2021/10/22 04:57:26;;;;;;;38.75;27.23;;;;;;;;;;4922246;29;20414;-85
2021/10/22 04:59:53;;;;;;;36.03;26.05;;;;;;;;;;4925141;29;20428;-85
2021/10/22 05:02:21;;;;;;;35.50;25.92;;;;;;;;;;4918884;29;20422;-85
2021/10/22 05:04:48;;;;;;;35.35;26.00;;;;;;;;;;4925955;29;20883;-85
2021/10/22 05:07:15;;;;;;;37.50;26.50;;;;;;;;;;4926392;29;20414;-85
2021/10/22 05:09:42;;;;;;;38.78;27.20;;;;;;;;;;4924780;29;20902;-84
2021/10/22 05:12:09;;;;;;;39.47;27.37;;;;;;;;;;4927836;29;20416;-85
2021/10/22 05:14:37;;;;;;;37.20;26.70;;;;;;;;;;4931255;29;20422;-83
2021/10/22 05:17:04;;;;;;;39.90;27.27;;;;;;;;;;4931179;29;20414;-84
2021/10/22 05:19:33;;;;;;;39.70;27.38;;;;;;;;;;4938821;29;20896;-84
2021/10/22 05:22:00;;;;;;;41.72;27.63;;;;;;;;;;4956252;28;20394;-83
2021/10/22 05:24:27;;;;;;;37.53;25.97;;;;;;;;;;4944606;29;20449;-84
2021/10/22 05:26:54;;;;;;;38.55;26.65;;;;;;;;;;4932646;29;20415;-82
2021/10/22 05:29:20;;;;;;;37.53;26.55;;;;;;;;;;4931091;29;20478;-82
2021/10/22 05:31:47;;;;;;;37.45;25.90;;;;;;;;;;4925468;29;20424;-83
2021/10/22 05:34:14;;;;;;;37.95;26.58;;;;;;;;;;4922720;29;20900;-82
2021/10/22 05:36:42;;;;;;;38.92;26.30;;;;;;;;;;4926734;29;20409;-83
2021/10/22 05:39:09;;;;;;;36.15;26.00;;;;;;;;;;4926822;29;20422;-83
2021/10/22 05:41:36;;;;;;;37.30;26.40;;;;;;;;;;4934585;29;20831;-85
2021/10/22 05:44:03;;;;;;;36.85;25.95;;;;;;;;;;4928347;29;20488;-85
2021/10/22 05:46:30;;;;;;;39.30;27.30;;;;;;;;;;4920910;29;20418;-84
2021/10/22 05:48:56;;;;;;;38.83;26.83;;;;;;;;;;4925691;29;20408;-85
2021/10/22 05:51:23;;;;;;;39.47;25.88;;;;;;;;;;4925811;29;20421;-85
2021/10/22 05:53:53;;;;;;;37.47;25.27;;;;;;;;;;4929047;29;20515;-86
2021/10/22 05:56:20;;;;;;;38.03;25.33;;;;;;;;;;4932839;29;20440;-86
2021/10/22 05:58:49;;;;;;;38.67;26.23;;;;;;;;;;4929319;29;20476;-86
2021/10/22 06:01:16;;;;;;;39.38;26.95;;;;;;;;;;4925413;29;20426;-87
2021/10/22 06:03:42;;;;;;;38.38;26.35;;;;;;;;;;4926394;29;20422;-85
2021/10/22 06:06:09;;;;;;;40.38;26.27;;;;;;;;;;4924758;29;20426;-85
2021/10/22 06:08:36;;;;;;;39.38;27.25;;;;;;;;;;4925374;29;20425;-86
2021/10/22 06:11:10;;;;;;;40.55;27.20;;;;;;;;;;4926480;29;20425;-86
2021/10/22 06:13:37;;;;;;;39.67;26.38;;;;;;;;;;4923577;29;20563;-86
2021/10/22 06:16:04;;;;;;;39.63;26.30;;;;;;;;;;4920042;29;20422;-86
2021/10/22 06:18:31;;;;;;;41.87;28.13;;;;;;;;;;4928194;29;20520;-87
2021/10/22 06:21:02;;;;;;;42.35;28.20;;;;;;;;;;4927170;29;20410;-86
2021/10/22 06:26:15;;;;;;;40.05;27.75;;;;;;;;;;4925707;29;20429;-85
2021/10/22 06:28:42;;;;;;;38.42;27.50;;;;;;;;;;4926587;29;20436;-86
2021/10/22 06:31:11;;;;;;;43.17;28.40;;;;;;;;;;4924647;29;20456;-85
2021/10/22 06:33:38;;;;;;;73.22;39.42;;;;;;;;;;4928407;29;20480;-86
2021/10/22 06:36:05;;;;;;;227.63;99.03;;;;;;;;;;4925879;29;20410;-85
2021/10/22 06:38:32;;;;;;;69.35;37.63;;;;;;;;;;4930823;29;20422;-86
2021/10/22 06:40:59;;;;;;;67.82;37.35;;;;;;;;;;4938572;29;21099;-86
2021/10/22 06:43:28;;;;;;;47.92;29.25;;;;;;;;;;4940046;29;20416;-87
2021/10/22 06:45:55;;;;;;;45.60;27.43;;;;;;;;;;4931308;29;20440;-86
2021/10/22 06:48:22;;;;;;;39.08;25.83;;;;;;;;;;4932488;29;20408;-86
2021/10/22 06:50:49;;;;;;;34.73;23.70;;;;;;;;;;4930517;29;20410;-86
2021/10/22 06:53:16;;;;;;;33.55;24.23;;;;;;;;;;4934360;29;20833;-86
2021/10/22 06:55:43;;;;;;;38.92;28.13;;;;;;;;;;4938472;29;20886;-86
2021/10/22 06:58:09;;;;;;;39.50;28.87;;;;;;;;;;4931718;29;20503;-86
2021/10/22 07:00:38;;;;;;;34.80;26.00;;;;;;;;;;4925976;29;20485;-86
2021/10/22 07:03:05;;;;;;;32.25;24.15;;;;;;;;;;4931236;29;20914;-87
2021/10/22 07:05:49;;;;;;;36.50;28.63;;;;;;;;;;4929840;29;20839;-85
2021/10/22 07:08:15;;;;;;;35.03;28.77;;;;;;;;;;4926393;29;20422;-86
2021/10/22 07:10:42;;;;;;;37.00;26.58;;;;;;;;;;4921345;29;20422;-85
2021/10/22 07:13:09;;;;;;;33.30;24.83;;;;;;;;;;4925020;29;20609;-85
2021/10/22 07:15:38;;;;;;;31.50;24.38;;;;;;;;;;4925970;29;20433;-86
2021/10/22 07:18:05;;;;;;;38.75;28.50;;;;;;;;;;4926596;29;20480;-84
2021/10/22 07:20:33;;;;;;;44.00;35.67;;;;;;;;;;4927933;29;20421;-86
2021/10/22 07:23:04;;;;;;;51.33;43.38;;;;;;;;;;4925807;29;20426;-87
2021/10/22 07:25:32;;;;;;;34.28;25.55;;;;;;;;;;4938716;29;20454;-85
2021/10/22 07:28:06;;;;;;;34.03;25.67;;;;;;;;;;4925312;29;20454;-85
2021/10/22 07:30:33;;;;;;;34.50;24.98;;;;;;;;;;4929946;29;20422;-84
2021/10/22 07:33:01;;;;;;;31.20;23.75;;;;;;;;;;4927387;29;20418;-85
2021/10/22 07:35:28;;;;;;;32.77;24.60;;;;;;;;;;4933122;29;20417;-85
2021/10/22 07:37:55;;;;;;;34.42;25.08;;;;;;;;;;4928954;29;20922;-85
2021/10/22 07:40:22;;;;;;;36.35;25.85;;;;;;;;;;4929593;29;20425;-86
2021/10/22 07:42:49;;;;;;;37.03;26.27;;;;;;;;;;4928400;29;20417;-86
2021/10/22 07:45:16;;;;;;;37.42;29.17;;;;;;;;;;4928203;29;20512;-86
2021/10/22 07:47:43;;;;;;;35.28;27.73;;;;;;;;;;4929383;29;20803;-86
2021/10/22 07:50:11;;;;;;;42.05;36.97;;;;;;;;;;4924543;29;20772;-86
2021/10/22 07:52:38;;;;;;;36.97;27.58;;;;;;;;;;4929962;29;20413;-85
2021/10/22 07:55:07;;;;;;;35.90;26.52;;;;;;;;;;4928795;29;20417;-85
2021/10/22 07:57:33;;;;;;;36.30;29.08;;;;;;;;;;4925755;29;20427;-85
2021/10/22 08:00:00;;;;;;;35.55;27.73;;;;;;;;;;4927905;29;20421;-86
2021/10/22 08:02:27;;;;;;;42.22;37.63;;;;;;;;;;4929278;29;20406;-85
2021/10/22 08:04:54;;;;;;;43.17;33.38;;;;;;;;;;4928520;29;20410;-86
2021/10/22 08:07:29;;;;;;;35.20;27.08;;;;;;;;;;4928552;29;20418;-86
2021/10/22 08:09:56;;;;;;;48.47;39.42;;;;;;;;;;4929849;29;20436;-86
2021/10/22 08:12:24;;;;;;;37.43;29.83;;;;;;;;;;4928214;29;20425;-85
2021/10/22 08:14:51;;;;;;;43.42;36.75;;;;;;;;;;4925060;29;20442;-86
2021/10/22 08:17:20;;;;;;;37.70;28.70;;;;;;;;;;4928572;29;20886;-86
2021/10/22 08:19:52;;;;;;;42.63;27.70;;;;;;;;;;4927968;29;20430;-85
2021/10/22 08:22:29;;;;;;;36.28;27.52;;;;;;;;;;4929238;29;20512;-86
2021/10/22 08:25:00;;;;;;;39.28;28.38;;;;;;;;;;4926286;29;20425;-84
2021/10/22 08:27:29;;;;;;;37.43;28.00;;;;;;;;;;4926210;29;20426;-86
2021/10/22 08:29:56;;;;;;;42.13;29.73;;;;;;;;;;4925589;29;20421;-86
2021/10/22 08:32:22;;;;;;;42.63;32.58;;;;;;;;;;4925956;29;20422;-87
2021/10/22 08:34:49;;;;;;;42.45;28.42;;;;;;;;;;4931128;29;20437;-86
2021/10/22 08:37:16;;;;;;;40.20;27.65;;;;;;;;;;4922878;29;20418;-86
2021/10/22 08:39:46;;;;;;;39.93;26.97;;;;;;;;;;4926711;29;20423;-86
2021/10/22 08:42:20;;;;;;;37.33;27.30;;;;;;;;;;4924497;29;20415;-86
2021/10/22 08:44:47;;;;;;;36.07;27.07;;;;;;;;;;4935878;29;20446;-86
2021/10/22 08:47:14;;;;;;;39.10;28.73;;;;;;;;;;4954199;29;20410;-86
2021/10/22 08:49:41;;;;;;;37.70;29.05;;;;;;;;;;4939640;29;20420;-86
2021/10/22 08:52:08;;;;;;;36.13;28.77;;;;;;;;;;4927778;29;20785;-85
2021/10/22 08:54:39;;;;;;;48.45;33.13;;;;;;;;;;4928356;29;20480;-85
2021/10/22 08:57:06;;;;;;;46.78;32.85;;;;;;;;;;4927307;29;20430;-84
2021/10/22 08:59:34;;;;;;;70.05;42.00;;;;;;;;;;4934777;29;20501;-84
2021/10/22 09:02:16;;;;;;;126.87;63.80;;;;;;;;;;4930199;29;20467;-84
2021/10/22 09:04:44;;;;;;;89.93;48.30;;;;;;;;;;4931091;29;20450;-84
2021/10/22 09:07:16;;;;;;;102.57;53.30;;;;;;;;;;4935030;28;20414;-83
2021/10/22 09:09:43;;;;;;;92.93;51.10;;;;;;;;;;4938080;29;20853;-84
2021/10/22 09:12:11;;;;;;;47.40;32.55;;;;;;;;;;4934068;29;20461;-85
2021/10/22 09:14:41;;;;;;;73.05;44.38;;;;;;;;;;4932400;29;20432;-86
2021/10/22 09:17:13;;;;;;;47.28;32.67;;;;;;;;;;4927747;29;20431;-85
2021/10/22 09:19:43;;;;;;;48.63;34.97;;;;;;;;;;4928075;29;20473;-84
2021/10/22 09:22:25;;;;;;;63.30;43.28;;;;;;;;;;4929731;29;20474;-86
2021/10/22 09:24:53;;;;;;;54.85;37.95;;;;;;;;;;4931906;29;20420;-84
2021/10/22 09:27:44;;;;;;;65.28;43.95;;;;;;;;;;4932378;29;20420;-85
2021/10/22 09:30:34;;;;;;;39.72;30.05;;;;;;;;;;4933628;29;20750;-84
2021/10/22 09:33:04;;;;;;;35.05;25.83;;;;;;;;;;4938779;29;20416;-85
2021/10/22 09:35:41;;;;;;;29.23;24.20;;;;;;;;;;4937968;29;20409;-85
2021/10/22 09:38:24;;;;;;;30.63;23.48;;;;;;;;;;4926740;29;20760;-84
2021/10/22 09:40:58;;;;;;;26.98;23.73;;;;;;;;;;4930041;29;20426;-84
2021/10/22 09:43:28;;;;;;;26.70;22.40;;;;;;;;;;4932444;29;20413;-84
2021/10/22 09:46:11;;;;;;;37.47;27.93;;;;;;;;;;4928536;29;20469;-84
2021/10/22 09:48:41;;;;;;;32.38;25.60;;;;;;;;;;4934457;29;20447;-83
2021/10/22 09:51:25;;;;;;;44.03;31.85;;;;;;;;;;4937800;29;20444;-85
2021/10/22 09:53:53;;;;;;;28.15;23.17;;;;;;;;;;4936805;29;20427;-86
2021/10/22 09:56:22;;;;;;;36.25;29.50;;;;;;;;;;4938124;29;20417;-86
2021/10/22 09:58:58;;;;;;;24.50;20.13;;;;;;;;;;4930864;29;20418;-83
2021/10/22 10:01:31;;;;;;;25.75;20.55;;;;;;;;;;4933934;29;20412;-86
2021/10/22 10:04:00;;;;;;;24.88;20.77;;;;;;;;;;4934921;29;20422;-84
2021/10/22 10:06:28;;;;;;;24.40;19.67;;;;;;;;;;4927929;29;20426;-83
2021/10/22 10:08:55;;;;;;;22.23;18.50;;;;;;;;;;4938507;29;20487;-83
2021/10/22 10:11:23;;;;;;;22.05;18.73;;;;;;;;;;4937060;29;20412;-85
2021/10/22 10:13:49;;;;;;;22.58;19.00;;;;;;;;;;4937559;29;20422;-84
2021/10/22 10:16:18;;;;;;;22.17;18.88;;;;;;;;;;4926925;29;20898;-86
2021/10/22 10:18:51;;;;;;;21.98;18.52;;;;;;;;;;4931218;29;20417;-87
2021/10/22 10:21:21;;;;;;;23.23;18.50;;;;;;;;;;4932670;29;20751;-85
2021/10/22 10:23:48;;;;;;;23.85;17.95;;;;;;;;;;4943321;29;20505;-86
2021/10/22 10:26:22;;;;;;;20.63;16.90;;;;;;;;;;4937713;29;20427;-85
2021/10/22 10:28:50;;;;;;;18.38;16.30;;;;;;;;;;4937762;29;20412;-83
2021/10/22 10:31:37;;;;;;;20.95;16.83;;;;;;;;;;4931565;29;20428;-83
2021/10/22 10:34:36;;;;;;;18.67;16.65;;;;;;;;;;4933963;29;20928;-84
2021/10/22 10:37:04;;;;;;;22.95;18.15;;;;;;;;;;4939571;29;20426;-84
2021/10/22 10:39:56;;;;;;;23.90;19.95;;;;;;;;;;4938525;29;20479;-86
2021/10/22 10:42:26;;;;;;;23.17;18.02;;;;;;;;;;4935230;29;20483;-85
2021/10/22 10:44:54;;;;;;;20.85;17.05;;;;;;;;;;4933540;29;20845;-86
2021/10/22 10:47:45;;;;;;;22.13;18.35;;;;;;;;;;4928948;29;20598;-87
2021/10/22 10:50:16;;;;;;;22.63;18.70;;;;;;;;;;4939819;29;20408;-84
2021/10/22 10:52:44;;;;;;;22.93;18.57;;;;;;;;;;4936618;29;20402;-86
2021/10/22 10:55:18;;;;;;;22.15;18.33;;;;;;;;;;4937860;29;20433;-86
2021/10/22 10:57:49;;;;;;;22.35;18.02;;;;;;;;;;4938671;29;20447;-85
2021/10/22 11:00:17;;;;;;;20.38;17.98;;;;;;;;;;4938644;29;20502;-84
2021/10/22 11:03:11;;;;;;;20.43;18.07;;;;;;;;;;4937892;29;20512;-85
2021/10/22 11:06:34;;;;;;;24.98;21.05;;;;;;;;;;4928973;29;20413;-85
2021/10/22 11:09:01;;;;;;;22.17;18.30;;;;;;;;;;4926880;29;20495;-85
2021/10/22 11:11:39;;;;;;;22.05;18.23;;;;;;;;;;4927244;29;20451;-85
2021/10/22 11:14:16;;;;;;;23.20;18.13;;;;;;;;;;4931381;29;20433;-85
2021/10/22 11:16:53;;;;;;;19.37;17.17;;;;;;;;;;4936749;29;20957;-84
2021/10/22 11:19:25;;;;;;;23.15;19.42;;;;;;;;;;4941763;28;20431;-84
2021/10/22 11:21:54;;;;;;;25.65;20.98;;;;;;;;;;4942204;29;20893;-83
2021/10/22 11:24:23;;;;;;;23.00;19.92;;;;;;;;;;4939572;29;20469;-85
2021/10/22 11:26:59;;;;;;;24.88;20.60;;;;;;;;;;4934377;28;20437;-84
2021/10/22 11:29:26;;;;;;;24.10;20.53;;;;;;;;;;4932139;28;20428;-84
2021/10/22 11:31:57;;;;;;;26.45;20.90;;;;;;;;;;4924022;29;20693;-83
2021/10/22 11:34:25;;;;;;;23.03;19.77;;;;;;;;;;4927551;29;21149;-83
2021/10/22 11:36:59;;;;;;;23.83;19.37;;;;;;;;;;4931855;29;20519;-84
2021/10/22 11:39:28;;;;;;;23.77;19.17;;;;;;;;;;4925599;29;20489;-84
2021/10/22 11:42:27;;;;;;;22.37;19.93;;;;;;;;;;4927028;29;20421;-83
2021/10/22 11:44:58;;;;;;;24.00;19.33;;;;;;;;;;4922419;29;20790;-85
2021/10/22 11:47:32;;;;;;;21.40;17.65;;;;;;;;;;4925810;29;20572;-84
2021/10/22 11:50:09;;;;;;;22.25;18.17;;;;;;;;;;4933148;29;20923;-84
2021/10/22 11:52:37;;;;;;;20.98;18.08;;;;;;;;;;4929947;29;20433;-83
2021/10/22 11:55:05;;;;;;;20.85;17.58;;;;;;;;;;4934143;28;20491;-81
2021/10/22 11:57:35;;;;;;;23.10;19.10;;;;;;;;;;4935395;29;20428;-84
2021/10/22 12:00:04;;;;;;;20.70;17.85;;;;;;;;;;4928863;29;20485;-84
2021/10/22 12:02:32;;;;;;;24.30;18.98;;;;;;;;;;4936467;29;20423;-84
2021/10/22 12:05:01;;;;;;;25.38;21.15;;;;;;;;;;4929921;29;20420;-84
2021/10/22 12:07:30;;;;;;;24.38;21.00;;;;;;;;;;4937934;28;20448;-83
2021/10/22 12:09:58;;;;;;;24.90;19.98;;;;;;;;;;4942703;29;20427;-83
2021/10/22 12:12:27;;;;;;;24.10;20.20;;;;;;;;;;4932769;29;20447;-85
2021/10/22 12:14:54;;;;;;;25.05;20.13;;;;;;;;;;4938620;29;20426;-84
2021/10/22 12:17:22;;;;;;;29.08;23.50;;;;;;;;;;4932842;29;20420;-84
2021/10/22 12:19:51;;;;;;;24.73;20.08;;;;;;;;;;4935224;29;20418;-85
2021/10/22 12:22:25;;;;;;;26.80;21.93;;;;;;;;;;4938101;29;20420;-84
2021/10/22 12:24:54;;;;;;;27.50;22.17;;;;;;;;;;4935396;29;20507;-85
2021/10/22 12:27:25;;;;;;;25.08;22.23;;;;;;;;;;4937644;29;20870;-84
2021/10/22 12:29:58;;;;;;;24.30;20.40;;;;;;;;;;4931140;29;20445;-84
2021/10/22 12:32:40;;;;;;;24.83;22.20;;;;;;;;;;4938501;29;20924;-84
2021/10/22 12:35:18;;;;;;;25.27;21.30;;;;;;;;;;4936512;29;20477;-85
2021/10/22 12:37:49;;;;;;;29.92;21.48;;;;;;;;;;4940021;29;20935;-84
2021/10/22 12:40:19;;;;;;;26.02;21.83;;;;;;;;;;4940421;29;20409;-84
2021/10/22 12:43:02;;;;;;;24.70;21.50;;;;;;;;;;4940291;29;20415;-84
2021/10/22 12:45:29;;;;;;;24.33;20.60;;;;;;;;;;4929456;29;21035;-84
2021/10/22 12:47:57;;;;;;;22.50;20.10;;;;;;;;;;4935955;29;20423;-84
2021/10/22 12:50:26;;;;;;;23.13;20.48;;;;;;;;;;4930756;29;20448;-84
2021/10/22 12:52:58;;;;;;;23.73;19.63;;;;;;;;;;4936220;29;20442;-85
2021/10/22 12:55:26;;;;;;;22.20;20.00;;;;;;;;;;4929225;29;20440;-84
2021/10/22 12:58:12;;;;;;;20.97;18.60;;;;;;;;;;4939080;29;20449;-84
2021/10/22 13:00:39;;;;;;;21.90;19.60;;;;;;;;;;4933882;29;20422;-85
2021/10/22 13:03:06;;;;;;;21.92;18.35;;;;;;;;;;4934205;29;20431;-84
2021/10/22 13:05:34;;;;;;;20.80;18.58;;;;;;;;;;4933907;29;20423;-85
2021/10/22 13:08:17;;;;;;;22.77;19.42;;;;;;;;;;4935616;29;20432;-85
2021/10/22 13:10:55;;;;;;;21.67;19.38;;;;;;;;;;4938500;29;20488;-84
2021/10/22 13:13:44;;;;;;;21.55;19.25;;;;;;;;;;4935277;29;20422;-84
2021/10/22 13:21:45;;;;;;;20.13;18.02;;;;;;;;;;4952243;28;20421;-86
2021/10/22 13:24:12;;;;;;;21.67;18.60;;;;;;;;;;4959059;28;20398;-86
2021/10/22 13:26:41;;;;;;;23.60;18.25;;;;;;;;;;4945639;28;20774;-85
2021/10/22 13:29:12;;;;;;;19.48;17.48;;;;;;;;;;4934400;29;20765;-85
2021/10/22 13:31:45;;;;;;;19.25;17.13;;;;;;;;;;4930164;29;20433;-85
2021/10/22 13:34:12;;;;;;;19.63;16.77;;;;;;;;;;4936938;29;20503;-85
2021/10/22 13:36:39;;;;;;;18.50;16.13;;;;;;;;;;4932010;29;20433;-85
2021/10/22 13:39:06;;;;;;;19.38;15.35;;;;;;;;;;4932680;29;20420;-86
2021/10/22 13:41:32;;;;;;;18.07;16.30;;;;;;;;;;4926882;29;20420;-85
2021/10/22 13:43:59;;;;;;;17.85;15.95;;;;;;;;;;4929174;29;20412;-86
2021/10/22 13:46:27;;;;;;;17.10;14.93;;;;;;;;;;4927237;29;20405;-84
2021/10/22 13:48:54;;;;;;;18.58;14.93;;;;;;;;;;4927317;29;20414;-85
2021/10/22 13:51:21;;;;;;;16.87;15.03;;;;;;;;;;4931494;29;20459;-85
2021/10/22 13:53:48;;;;;;;17.48;15.48;;;;;;;;;;4930540;29;20416;-86
2021/10/22 13:56:16;;;;;;;17.13;15.32;;;;;;;;;;4932373;29;20493;-86
2021/10/22 13:58:43;;;;;;;16.50;14.73;;;;;;;;;;4929234;29;20414;-84
2021/10/22 14:01:10;;;;;;;16.45;14.70;;;;;;;;;;4935217;29;20497;-85
2021/10/22 14:03:39;;;;;;;15.77;14.15;;;;;;;;;;4929145;29;20422;-85
2021/10/22 14:06:06;;;;;;;16.48;14.68;;;;;;;;;;4934560;29;20779;-85
2021/10/22 14:08:33;;;;;;;16.95;14.70;;;;;;;;;;4927231;29;20453;-86
2021/10/22 14:11:04;;;;;;;16.27;14.57;;;;;;;;;;4924856;29;20427;-86
2021/10/22 14:13:34;;;;;;;16.92;15.15;;;;;;;;;;4923603;29;20417;-85
2021/10/22 14:16:28;;;;;;;17.47;15.63;;;;;;;;;;4927940;29;20490;-85
2021/10/22 14:29:57;;;;;;;18.70;14.98;;;;;;;;;;4934369;29;20408;-86
2021/10/22 14:32:25;;;;;;;17.00;14.70;;;;;;;;;;4933406;29;20413;-85
2021/10/22 14:34:58;;;;;;;18.35;14.60;;;;;;;;;;4934251;29;20431;-84
2021/10/22 14:37:25;;;;;;;24.70;19.77;;;;;;;;;;4931713;29;21180;-84
2021/10/22 14:39:52;;;;;;;17.52;15.27;;;;;;;;;;4938195;29;20424;-84
2021/10/22 14:42:19;;;;;;;17.55;14.90;;;;;;;;;;4931708;29;20494;-84
2021/10/22 14:44:46;;;;;;;18.08;15.75;;;;;;;;;;4928447;29;20481;-85
2021/10/22 14:47:17;;;;;;;18.60;15.20;;;;;;;;;;4926989;29;20417;-84
2021/10/22 14:49:46;;;;;;;18.60;15.98;;;;;;;;;;4929994;29;20420;-85
2021/10/22 14:52:24;;;;;;;18.15;16.10;;;;;;;;;;4923967;29;20414;-84